Accueil
METAR-TAF:

METAR-TAF

Aéroports :

Nîmes, France

Aéroport de Nîmes–Alès–Camargue–Cévennes, Garons

latitude: 43-45N, longitude: 004-25E, altitude: 94 m

Observation

Le bulletin a été fait il y a 31 minutes, à 22:00 UTC
Vent 10 kt de nord
Température 2°C
Humidité 55%
Pression 1007 hPa
Visibilité 10 km ou plus
pas de nuages en-dessous de 1500 mètres et pas de cumulonimbus.

METAR: LFTW 222200Z AUTO 35010KT CAVOK 02/M06 Q1007

Heure: 23:31 (22:31 UTC)

Prévision

Le bulletin a été fait il y a 8 heures et 31 minutes, à 14:00 UTC
Prévision valable du 22 à 15 UTC au 23 à 15 UTC
Vent 12 kt de nord
Visibilité 10 km ou plus
pas de nuages en-dessous de 1500 mètres et pas de cumulonimbus.
Temporairement
du 23 à 09 UTC au 23 à 15 UTC
Nuages épars à une hauteur de 4500 ft

TAF: LFTW 221400Z 2215/2315 36012KT CAVOK TEMPO 2309/2315 SCT045

Observations et prévisions météorologiques de plus de 4000 aéroports (messages METAR et TAF).

Les stations disponibles sont représentées par des disques jaunes et rouges sur la carte.

Passer la souris dessus pour voir le nom de la station.

Cliquer dessus pour voir les observations et prévisions météorologiques.

Pour changer de carte: cliquez sur les boutons verts avec une croix noire pour zoomer, sur le bouton vert avec un tiret pour effectuer un zoom arrière, ou sur les flèches vertes pour les cartes adjacentes.


METAR-TAF: